createdAt,value
2023-03-21T00:01:55.310Z,11.77
2023-03-21T00:03:57.908Z,12.43
2023-03-21T00:06:08.480Z,13.20
2023-03-21T00:08:11.275Z,11.43
2023-03-21T00:10:18.140Z,11.70
2023-03-21T00:12:24.164Z,11.68
2023-03-21T00:14:31.133Z,10.48
2023-03-21T00:16:35.771Z,10.70
2023-03-21T00:18:42.475Z,10.95
2023-03-21T00:20:52.190Z,10.88
2023-03-21T00:22:54.868Z,10.60
2023-03-21T00:24:57.471Z,10.95
2023-03-21T00:27:21.961Z,10.27
2023-03-21T00:29:22.944Z,10.25
2023-03-21T00:31:25.601Z,9.98
2023-03-21T00:33:28.935Z,9.05
2023-03-21T00:37:54.441Z,10.07
2023-03-21T00:39:57.043Z,11.23
2023-03-21T00:41:59.576Z,10.48
2023-03-21T00:44:02.402Z,9.82
2023-03-21T00:46:05.169Z,13.30
2023-03-21T00:48:07.745Z,10.43
2023-03-21T00:50:12.024Z,10.77
2023-03-21T00:52:22.143Z,9.98
2023-03-21T00:54:29.933Z,10.10
2023-03-21T00:56:32.619Z,11.25
2023-03-21T00:58:35.315Z,10.57
2023-03-21T01:00:38.921Z,10.70
2023-03-21T01:03:14.075Z,11.68
2023-03-21T01:05:39.670Z,11.75
2023-03-21T01:07:42.190Z,12.07
2023-03-21T01:09:44.857Z,9.32
2023-03-21T01:11:47.951Z,11.15
2023-03-21T01:13:56.219Z,10.63
2023-03-21T01:16:03.555Z,10.48
2023-03-21T01:18:06.081Z,10.95
2023-03-21T01:20:09.335Z,12.27
2023-03-21T01:22:12.108Z,11.45
2023-03-21T01:24:14.596Z,11.88
2023-03-21T01:26:17.138Z,12.63
2023-03-21T01:28:19.753Z,11.25
2023-03-21T01:30:24.135Z,11.00
2023-03-21T01:32:27.325Z,11.35
2023-03-21T01:34:30.083Z,12.15
2023-03-21T01:36:33.074Z,12.57
2023-03-21T01:38:35.947Z,11.82
2023-03-21T01:40:39.505Z,12.40
2023-03-21T01:42:42.029Z,12.07
2023-03-21T01:45:01.432Z,10.60
2023-03-21T01:47:13.150Z,12.20
2023-03-21T01:49:27.861Z,11.63
2023-03-21T01:51:34.630Z,12.02
2023-03-21T01:53:39.729Z,12.60
2023-03-21T01:55:42.349Z,11.00
2023-03-21T01:58:05.297Z,13.68
2023-03-21T02:00:12.830Z,11.45
2023-03-21T02:02:27.353Z,12.05
2023-03-21T02:04:30.470Z,11.77
2023-03-21T02:06:43.974Z,12.48
2023-03-21T02:08:46.938Z,12.57
2023-03-21T02:10:51.057Z,13.07
2023-03-21T02:12:56.027Z,14.05
2023-03-21T02:14:59.123Z,13.73
2023-03-21T02:17:34.946Z,15.52
2023-03-21T02:19:57.613Z,11.60
2023-03-21T02:22:21.162Z,13.73
2023-03-21T02:25:08.380Z,13.50
2023-03-21T02:27:24.888Z,13.20
2023-03-21T02:29:39.096Z,13.40
2023-03-21T02:31:48.255Z,13.43
2023-03-21T02:34:09.531Z,13.18
2023-03-21T02:36:17.758Z,11.13
2023-03-21T02:38:38.174Z,10.90
2023-03-21T02:41:13.167Z,12.25
2023-03-21T02:43:37.300Z,12.55
2023-03-21T02:45:47.372Z,13.60
2023-03-21T02:47:53.673Z,11.90
2023-03-21T02:50:15.172Z,13.57
2023-03-21T02:52:38.734Z,12.38
2023-03-21T02:54:48.366Z,12.63
2023-03-21T02:56:53.790Z,13.48
2023-03-21T02:58:56.434Z,11.93
2023-03-21T03:00:58.973Z,13.35
2023-03-21T03:03:09.632Z,11.48
2023-03-21T03:05:22.238Z,12.02
2023-03-21T03:07:33.885Z,13.50
2023-03-21T03:09:54.254Z,11.50
2023-03-21T03:12:10.335Z,12.75
2023-03-21T03:15:00.341Z,14.35
2023-03-21T03:17:20.850Z,10.57
2023-03-21T03:19:27.938Z,11.55
2023-03-21T03:21:49.842Z,10.93
2023-03-21T03:24:10.288Z,13.07
2023-03-21T03:26:31.822Z,11.05
2023-03-21T03:28:41.263Z,11.95
2023-03-21T03:30:57.483Z,10.45
2023-03-21T03:33:10.418Z,11.75
2023-03-21T03:35:17.138Z,10.57
2023-03-21T03:37:26.447Z,11.25
2023-03-21T03:39:40.552Z,11.63
2023-03-21T03:44:14.574Z,10.40
2023-03-21T03:46:36.328Z,9.98
2023-03-21T03:48:48.350Z,9.35
2023-03-21T03:53:18.842Z,8.88
2023-03-21T03:55:23.958Z,8.68
2023-03-21T03:57:27.630Z,8.48
2023-03-21T03:59:30.347Z,9.38
2023-03-21T04:01:33.948Z,9.32
2023-03-21T04:03:48.388Z,8.23
2023-03-21T04:05:54.216Z,8.15
2023-03-21T04:07:57.220Z,9.05
2023-03-21T04:09:59.924Z,9.10
2023-03-21T04:12:02.418Z,8.38
2023-03-21T04:14:04.918Z,7.93
2023-03-21T04:16:08.889Z,7.22
2023-03-21T04:18:11.790Z,8.10
2023-03-21T04:20:23.581Z,8.23
2023-03-21T04:22:33.585Z,8.68
2023-03-21T04:24:37.621Z,8.20
2023-03-21T04:26:41.341Z,9.18
2023-03-21T04:28:43.826Z,7.53
2023-03-21T04:31:00.376Z,8.65
2023-03-21T04:33:04.952Z,7.35
2023-03-21T04:35:09.835Z,7.45
2023-03-21T04:37:13.686Z,7.22
2023-03-21T04:39:16.886Z,8.45
2023-03-21T04:41:20.451Z,7.93
2023-03-21T04:43:24.160Z,6.90
2023-03-21T04:45:26.787Z,7.78
2023-03-21T04:47:29.666Z,7.03
2023-03-21T04:49:32.445Z,7.18
2023-03-21T04:51:36.052Z,7.13
2023-03-21T04:53:39.629Z,4.93
2023-03-21T04:55:42.156Z,7.65
2023-03-21T04:57:44.696Z,6.60
2023-03-21T04:59:47.254Z,15.05
2023-03-21T05:01:50.214Z,7.93
2023-03-21T05:03:53.298Z,6.63
2023-03-21T05:05:56.211Z,5.47
2023-03-21T05:07:58.761Z,5.50
2023-03-21T05:10:02.581Z,7.35
2023-03-21T05:12:05.624Z,7.13
2023-03-21T05:14:10.134Z,7.13
2023-03-21T05:16:12.662Z,7.18
2023-03-21T05:18:15.494Z,7.85
2023-03-21T05:20:18.037Z,6.05
2023-03-21T05:22:20.842Z,8.65
2023-03-21T05:24:23.376Z,7.35
2023-03-21T05:26:25.932Z,7.38
2023-03-21T05:28:32.440Z,9.00
2023-03-21T05:30:35.187Z,6.28
2023-03-21T05:32:37.993Z,7.82
2023-03-21T05:34:40.538Z,6.75
2023-03-21T05:36:43.081Z,7.40
2023-03-21T05:38:48.448Z,6.57
2023-03-21T05:40:52.794Z,6.53
2023-03-21T05:42:55.392Z,6.93
2023-03-21T05:44:58.108Z,7.50
2023-03-21T05:47:00.603Z,6.15
2023-03-21T05:49:03.333Z,7.18
2023-03-21T05:51:06.313Z,6.32
2023-03-21T05:53:09.048Z,6.60
2023-03-21T05:55:11.558Z,6.75
2023-03-21T05:57:15.235Z,5.90
2023-03-21T05:59:17.832Z,6.20
2023-03-21T06:01:20.379Z,9.80
2023-03-21T06:03:23.008Z,5.65
2023-03-21T06:05:25.638Z,6.28
2023-03-21T06:07:28.224Z,6.45
2023-03-21T06:09:31.156Z,6.82
2023-03-21T06:11:37.357Z,5.35
2023-03-21T06:13:39.833Z,6.35
2023-03-21T06:15:42.496Z,5.65
2023-03-21T06:17:45.009Z,5.40
2023-03-21T06:19:47.540Z,5.28
2023-03-21T06:21:50.672Z,4.63
2023-03-21T06:23:54.225Z,5.53
2023-03-21T06:25:56.698Z,5.07
2023-03-21T06:27:59.220Z,5.60
2023-03-21T06:30:02.198Z,4.90
2023-03-21T06:32:05.015Z,5.15
2023-03-21T06:34:10.905Z,5.70
2023-03-21T06:36:13.403Z,5.22
2023-03-21T06:38:15.901Z,5.13
2023-03-21T06:40:18.486Z,5.97
2023-03-21T06:42:21.243Z,4.75
2023-03-21T06:44:24.633Z,5.35
2023-03-21T06:46:27.307Z,5.38
2023-03-21T06:48:29.796Z,4.68
2023-03-21T06:50:32.378Z,4.68
2023-03-21T06:52:34.872Z,4.45
2023-03-21T06:54:37.668Z,4.80
2023-03-21T06:56:40.803Z,5.03
2023-03-21T06:58:43.440Z,4.53
2023-03-21T07:00:46.505Z,4.93
2023-03-21T07:02:51.242Z,4.55
2023-03-21T07:04:54.147Z,4.95
2023-03-21T07:06:56.676Z,4.63
2023-03-21T07:08:59.229Z,4.22
2023-03-21T07:11:01.719Z,6.07
2023-03-21T07:13:04.313Z,4.70
2023-03-21T07:15:07.656Z,4.80
2023-03-21T07:17:10.196Z,4.30
2023-03-21T07:19:12.738Z,4.30
2023-03-21T07:21:15.594Z,4.32
2023-03-21T07:23:20.584Z,4.40
2023-03-21T07:25:23.114Z,5.03
2023-03-21T07:27:25.832Z,3.70
2023-03-21T07:29:28.337Z,3.47
2023-03-21T07:31:31.044Z,4.13
2023-03-21T07:33:34.139Z,4.40
2023-03-21T07:35:37.686Z,4.45
2023-03-21T07:37:41.064Z,3.72
2023-03-21T07:39:43.542Z,4.70
2023-03-21T07:41:46.141Z,4.40
2023-03-21T07:43:48.736Z,4.03
2023-03-21T07:45:51.307Z,4.50
2023-03-21T07:47:54.753Z,3.58
2023-03-21T07:49:57.285Z,4.32
2023-03-21T07:52:00.172Z,3.70
2023-03-21T07:54:02.928Z,4.10
2023-03-21T07:56:06.493Z,3.58
2023-03-21T07:58:09.183Z,3.75
2023-03-21T08:00:12.784Z,4.13
2023-03-21T08:02:17.197Z,4.18
2023-03-21T08:04:20.103Z,3.42
2023-03-21T08:06:23.179Z,3.78
2023-03-21T08:08:25.797Z,3.63
2023-03-21T08:10:28.698Z,3.63
2023-03-21T08:12:31.230Z,3.22
2023-03-21T08:14:33.996Z,4.15
2023-03-21T08:16:36.852Z,3.72
2023-03-21T08:18:39.427Z,3.42
2023-03-21T08:20:42.013Z,3.67
2023-03-21T08:22:44.697Z,2.97
2023-03-21T08:24:47.203Z,3.33
2023-03-21T08:26:49.697Z,2.70
2023-03-21T08:28:52.755Z,2.70
2023-03-21T08:30:55.420Z,2.70
2023-03-21T08:33:01.350Z,3.30
2023-03-21T08:35:10.191Z,3.08
2023-03-21T08:37:12.740Z,3.13
2023-03-21T08:39:15.540Z,2.90
2023-03-21T08:41:19.441Z,2.55
2023-03-21T08:43:21.911Z,3.10
2023-03-21T08:45:25.619Z,2.92
2023-03-21T08:47:28.218Z,3.28
2023-03-21T08:49:31.156Z,2.97
2023-03-21T08:51:33.879Z,2.55
2023-03-21T08:53:36.534Z,3.22
2023-03-21T08:55:39.630Z,2.25
2023-03-21T08:57:43.012Z,2.08
2023-03-21T08:59:45.604Z,2.75
2023-03-21T09:01:48.179Z,2.95
2023-03-21T09:03:50.979Z,2.55
2023-03-21T09:05:54.507Z,2.50
2023-03-21T09:07:57.814Z,3.03
2023-03-21T09:10:19.067Z,2.90
2023-03-21T09:12:22.556Z,2.40
2023-03-21T09:14:28.722Z,2.80
2023-03-21T09:16:32.921Z,2.60
2023-03-21T09:18:49.006Z,2.80
2023-03-21T09:20:52.129Z,2.97
2023-03-21T09:22:54.611Z,2.90
2023-03-21T09:24:57.617Z,1.85
2023-03-21T09:27:02.160Z,2.55
2023-03-21T09:29:06.097Z,2.58
2023-03-21T09:31:11.874Z,1.90
2023-03-21T09:33:21.316Z,2.70
2023-03-21T09:35:24.983Z,2.05
2023-03-21T09:37:27.879Z,2.03
2023-03-21T09:39:30.571Z,2.95
2023-03-21T09:41:54.320Z,2.28
2023-03-21T09:44:21.473Z,2.95
2023-03-21T09:46:46.161Z,2.97
2023-03-21T09:48:58.048Z,2.88
2023-03-21T09:53:19.410Z,2.60
2023-03-21T09:55:26.484Z,2.10
2023-03-21T09:57:43.434Z,3.03
2023-03-21T09:59:49.933Z,2.45
2023-03-21T10:01:53.346Z,2.85
2023-03-21T10:04:11.485Z,2.20
2023-03-21T10:06:17.127Z,2.08
2023-03-21T10:08:27.998Z,2.25
2023-03-21T10:10:41.974Z,2.75
2023-03-21T10:12:46.878Z,2.47
2023-03-21T10:14:58.157Z,2.63
2023-03-21T10:17:22.279Z,2.05
2023-03-21T10:19:25.358Z,1.80
2023-03-21T10:21:56.897Z,2.60
2023-03-21T10:23:54.885Z,2.15
2023-03-21T10:26:02.892Z,2.28
2023-03-21T10:28:07.875Z,1.90
2023-03-21T10:30:24.437Z,1.83
2023-03-21T10:32:27.435Z,2.38
2023-03-21T10:34:38.656Z,2.35
2023-03-21T10:36:41.288Z,2.92
2023-03-21T10:38:50.675Z,3.15
2023-03-21T10:40:54.379Z,3.35
2023-03-21T10:43:15.084Z,3.42
2023-03-21T10:45:20.220Z,2.50
2023-03-21T10:47:30.336Z,2.83
2023-03-21T10:49:40.183Z,3.15
2023-03-21T10:51:44.389Z,3.10
2023-03-21T10:54:12.694Z,2.83
2023-03-21T10:56:15.619Z,3.15
2023-03-21T10:58:27.462Z,3.58
2023-03-21T11:00:37.210Z,2.25
2023-03-21T11:02:40.666Z,2.75
2023-03-21T11:04:44.918Z,2.15
2023-03-21T11:06:55.887Z,2.80
2023-03-21T11:09:09.856Z,2.60
2023-03-21T11:11:22.419Z,3.22
2023-03-21T11:13:27.699Z,2.90
2023-03-21T11:15:56.608Z,2.40
2023-03-21T11:18:01.033Z,3.47
2023-03-21T11:20:11.405Z,2.22
2023-03-21T11:22:14.920Z,4.03
2023-03-21T11:24:19.047Z,2.58
2023-03-21T11:26:36.825Z,4.32
2023-03-21T11:28:41.840Z,3.35
2023-03-21T11:30:54.277Z,2.95
2023-03-21T11:33:01.793Z,3.42
2023-03-21T11:35:14.212Z,2.40
2023-03-21T11:37:33.591Z,2.70
2023-03-21T11:39:41.216Z,2.60
2023-03-21T11:41:48.537Z,3.03
2023-03-21T11:43:52.990Z,3.05
2023-03-21T11:46:06.423Z,3.42
2023-03-21T11:48:14.859Z,2.42
2023-03-21T11:50:24.296Z,2.67
2023-03-21T11:52:41.332Z,2.97
2023-03-21T11:54:58.797Z,2.60
2023-03-21T11:57:22.748Z,3.45
2023-03-21T11:59:30.966Z,3.90
2023-03-21T12:01:44.746Z,3.33
2023-03-21T12:04:04.468Z,3.03
2023-03-21T12:06:19.718Z,2.78
2023-03-21T12:08:39.713Z,2.80
2023-03-21T12:11:07.128Z,3.17
2023-03-21T12:13:31.089Z,2.92
2023-03-21T12:16:11.027Z,3.88
2023-03-21T12:18:44.233Z,2.47
2023-03-21T12:20:52.484Z,2.25
2023-03-21T12:23:03.808Z,2.60
2023-03-21T12:25:33.062Z,2.88
2023-03-21T12:27:38.621Z,3.10
2023-03-21T12:30:04.579Z,2.58
2023-03-21T12:32:28.099Z,3.00
2023-03-21T12:34:39.224Z,2.45
2023-03-21T12:37:26.542Z,2.85
2023-03-21T12:39:35.635Z,2.95
2023-03-21T12:41:51.080Z,1.90
2023-03-21T12:44:14.837Z,2.55
2023-03-21T12:46:46.593Z,3.08
2023-03-21T12:48:58.362Z,3.45
2023-03-21T12:51:04.951Z,3.22
2023-03-21T12:53:36.514Z,2.40
2023-03-21T12:55:39.790Z,2.53
2023-03-21T12:57:57.086Z,3.15
2023-03-21T13:00:21.978Z,3.17
2023-03-21T13:02:34.441Z,4.13
2023-03-21T13:05:00.831Z,3.50
2023-03-21T13:07:09.772Z,3.83
2023-03-21T13:09:28.559Z,3.80
2023-03-21T13:11:38.264Z,3.60
2023-03-21T13:13:47.594Z,3.10
2023-03-21T13:16:04.503Z,2.63
2023-03-21T13:18:09.732Z,2.78
2023-03-21T13:20:30.976Z,3.35
2023-03-21T13:22:33.762Z,2.65
2023-03-21T13:24:48.272Z,3.20
2023-03-21T13:27:01.586Z,3.35
2023-03-21T13:29:27.236Z,3.10
2023-03-21T13:31:33.908Z,3.10
2023-03-21T13:33:45.911Z,2.65
2023-03-21T13:36:01.130Z,2.50
2023-03-21T13:38:13.343Z,3.13
2023-03-21T13:40:28.348Z,4.00
2023-03-21T13:42:33.908Z,2.78
2023-03-21T13:44:49.617Z,3.13
2023-03-21T13:47:30.965Z,2.63
2023-03-21T13:49:38.239Z,2.80
2023-03-21T13:51:46.897Z,2.67
2023-03-21T13:54:08.911Z,2.67
2023-03-21T13:56:17.266Z,2.85
2023-03-21T13:58:48.542Z,2.70
2023-03-21T14:01:12.568Z,2.80
2023-03-21T14:03:20.751Z,2.85
2023-03-21T14:05:26.082Z,2.97
2023-03-21T14:07:35.183Z,3.55
2023-03-21T14:09:41.918Z,3.13
2023-03-21T14:11:46.840Z,3.55
2023-03-21T14:13:51.726Z,3.75
2023-03-21T14:16:00.085Z,2.78
2023-03-21T14:18:15.970Z,3.42
2023-03-21T14:20:30.768Z,3.50
2023-03-21T14:22:33.389Z,3.30
2023-03-21T14:24:35.899Z,3.30
2023-03-21T14:26:43.663Z,3.35
2023-03-21T14:28:51.441Z,3.90
2023-03-21T14:31:00.606Z,2.65
2023-03-21T14:33:35.620Z,3.35
2023-03-21T14:35:41.930Z,4.07
2023-03-21T14:37:46.821Z,3.47
2023-03-21T14:40:01.546Z,3.05
2023-03-21T14:42:11.086Z,2.85
2023-03-21T14:44:25.565Z,3.40
2023-03-21T14:46:28.149Z,3.35
2023-03-21T14:48:33.141Z,3.25
2023-03-21T14:50:48.476Z,4.28
2023-03-21T14:52:53.479Z,2.80
2023-03-21T14:54:56.758Z,2.85
2023-03-21T14:57:05.646Z,2.83
2023-03-21T14:59:14.573Z,3.08
2023-03-21T15:01:32.720Z,3.30
2023-03-21T15:03:36.824Z,3.00
2023-03-21T15:05:42.349Z,2.72
2023-03-21T15:07:57.512Z,3.72
2023-03-21T15:10:04.881Z,3.03
2023-03-21T15:12:09.556Z,3.28
2023-03-21T15:14:14.837Z,3.28
2023-03-21T15:16:18.400Z,3.42
2023-03-21T15:18:27.426Z,3.47
2023-03-21T15:20:34.275Z,3.00
2023-03-21T15:22:40.991Z,3.53
2023-03-21T15:24:48.033Z,3.28
2023-03-21T15:26:51.763Z,3.28
2023-03-21T15:28:59.087Z,3.58
2023-03-21T15:31:02.222Z,3.67
2023-03-21T15:33:10.721Z,2.85
2023-03-21T15:35:22.443Z,2.33
2023-03-21T15:37:33.284Z,3.20
2023-03-21T15:39:38.692Z,3.28
2023-03-21T15:41:43.185Z,4.05
2023-03-21T15:44:01.298Z,2.95
2023-03-21T15:46:14.441Z,3.30
2023-03-21T15:48:21.536Z,3.20
2023-03-21T15:50:24.132Z,3.47
2023-03-21T15:52:27.682Z,2.63
2023-03-21T15:54:40.753Z,3.15
2023-03-21T15:56:46.228Z,3.55
2023-03-21T15:58:52.760Z,3.67
2023-03-21T16:01:04.287Z,3.30
2023-03-21T16:03:18.924Z,3.22
2023-03-21T16:05:30.864Z,3.03
2023-03-21T16:09:42.801Z,3.80
2023-03-21T16:12:10.594Z,3.65
2023-03-21T16:14:13.470Z,4.00
2023-03-21T16:16:24.909Z,3.70
2023-03-21T16:18:29.612Z,4.13
2023-03-21T16:20:35.853Z,3.38
2023-03-21T16:22:38.394Z,3.50
2023-03-21T16:24:40.915Z,3.90
2023-03-21T16:26:47.958Z,3.95
2023-03-21T16:28:51.002Z,3.17
2023-03-21T16:30:53.543Z,3.75
2023-03-21T16:32:57.401Z,3.53
2023-03-21T16:35:01.343Z,2.75
2023-03-21T16:37:05.737Z,3.25
2023-03-21T16:39:28.434Z,3.15
2023-03-21T16:41:31.413Z,3.83
2023-03-21T16:43:34.125Z,3.92
2023-03-21T16:45:37.196Z,3.45
2023-03-21T16:47:40.398Z,3.15
2023-03-21T16:49:44.585Z,3.67
2023-03-21T16:51:47.347Z,3.33
2023-03-21T16:53:51.825Z,3.05
2023-03-21T16:55:54.652Z,4.35
2023-03-21T16:57:57.731Z,3.90
2023-03-21T17:00:00.984Z,3.50
2023-03-21T17:02:15.173Z,4.13
2023-03-21T17:04:18.655Z,3.38
2023-03-21T17:06:24.669Z,3.47
2023-03-21T17:08:29.266Z,3.20
2023-03-21T17:10:32.949Z,3.55
2023-03-21T17:12:35.584Z,2.88
2023-03-21T17:14:38.085Z,3.38
2023-03-21T17:16:43.086Z,3.47
2023-03-21T17:18:45.892Z,3.85
2023-03-21T17:20:48.381Z,3.03
2023-03-21T17:22:51.697Z,2.97
2023-03-21T17:24:54.215Z,4.30
2023-03-21T17:26:57.492Z,4.50
2023-03-21T17:29:00.667Z,3.50
2023-03-21T17:31:03.433Z,3.05
2023-03-21T17:33:06.482Z,3.97
2023-03-21T17:35:09.316Z,5.07
2023-03-21T17:37:12.754Z,3.42
2023-03-21T17:39:24.677Z,3.80
2023-03-21T17:41:27.740Z,3.97
2023-03-21T17:43:30.490Z,3.38
2023-03-21T17:45:33.047Z,4.10
2023-03-21T17:47:35.738Z,2.83
2023-03-21T17:49:38.330Z,4.25
2023-03-21T17:51:41.752Z,4.50
2023-03-21T17:53:45.480Z,3.15
2023-03-21T17:55:48.001Z,4.55
2023-03-21T17:57:50.486Z,5.25
2023-03-21T17:59:53.198Z,5.43
2023-03-21T18:01:55.713Z,4.32
2023-03-21T18:04:02.358Z,4.50
2023-03-21T18:06:06.116Z,4.63
2023-03-21T18:08:12.537Z,3.83
2023-03-21T18:10:18.470Z,4.75
2023-03-21T18:12:21.933Z,3.70
2023-03-21T18:14:28.494Z,3.78
2023-03-21T18:16:31.717Z,4.97
2023-03-21T18:18:35.251Z,4.15
2023-03-21T18:20:54.612Z,6.07
2023-03-21T18:22:58.324Z,5.90
2023-03-21T18:25:01.025Z,5.35
2023-03-21T18:27:04.333Z,4.65
2023-03-21T18:30:13.261Z,6.05
2023-03-21T18:31:29.933Z,4.93
2023-03-21T18:33:33.760Z,4.55
2023-03-21T18:35:36.606Z,4.30
2023-03-21T18:37:39.793Z,6.07
2023-03-21T18:39:44.557Z,4.93
2023-03-21T18:41:48.238Z,4.78
2023-03-21T18:44:09.048Z,4.55
2023-03-21T18:46:13.951Z,5.30
2023-03-21T18:48:16.710Z,5.03
2023-03-21T18:50:20.623Z,4.43
2023-03-21T18:52:23.671Z,4.93
2023-03-21T18:54:26.587Z,5.03
2023-03-21T18:58:51.866Z,5.55
2023-03-21T19:00:54.717Z,5.00
2023-03-21T19:03:13.893Z,5.40
2023-03-21T19:05:22.826Z,5.07
2023-03-21T19:07:25.442Z,4.53
2023-03-21T19:09:31.632Z,5.30
2023-03-21T19:11:34.934Z,5.25
2023-03-21T19:13:37.530Z,4.90
2023-03-21T19:15:41.345Z,5.70
2023-03-21T19:20:08.584Z,5.50
2023-03-21T19:22:11.632Z,5.03
2023-03-21T19:24:27.588Z,5.63
2023-03-21T19:26:32.618Z,5.63
2023-03-21T19:28:36.790Z,4.60
2023-03-21T19:30:40.180Z,4.93
2023-03-21T19:32:44.938Z,5.05
2023-03-21T19:34:47.430Z,4.90
2023-03-21T19:36:52.088Z,4.85
2023-03-21T19:38:55.116Z,5.18
2023-03-21T19:41:01.799Z,4.38
2023-03-21T19:43:29.799Z,4.70
2023-03-21T19:45:30.042Z,4.00
2023-03-21T19:47:32.913Z,4.28
2023-03-21T19:50:10.113Z,4.45
2023-03-21T19:51:58.694Z,4.45
2023-03-21T19:54:04.583Z,4.32
2023-03-21T19:56:19.703Z,4.13
2023-03-21T19:58:24.279Z,4.95
2023-03-21T20:00:26.776Z,4.50
2023-03-21T20:02:36.522Z,4.38
2023-03-21T20:04:42.125Z,4.95
2023-03-21T20:06:45.333Z,4.80
2023-03-21T20:09:27.642Z,4.68
2023-03-21T20:11:10.638Z,4.28
2023-03-21T20:13:13.188Z,3.58
2023-03-21T20:15:19.428Z,4.45
2023-03-21T20:17:23.906Z,3.95
2023-03-21T20:19:27.361Z,5.75
2023-03-21T20:21:36.920Z,5.03
2023-03-21T20:23:49.418Z,4.40
2023-03-21T20:25:52.374Z,4.50
2023-03-21T20:28:12.851Z,4.47
2023-03-21T20:30:19.172Z,4.40
2023-03-21T20:32:21.710Z,4.30
2023-03-21T20:34:24.391Z,4.18
2023-03-21T20:36:43.751Z,4.43
2023-03-21T20:38:46.927Z,4.65
2023-03-21T20:40:49.621Z,4.75
2023-03-21T20:42:52.150Z,7.68
2023-03-21T20:44:59.392Z,4.43
2023-03-21T20:47:05.613Z,4.63
2023-03-21T20:49:08.161Z,4.43
2023-03-21T20:53:36.030Z,4.05
2023-03-21T20:55:39.757Z,4.30
2023-03-21T20:57:42.392Z,4.47
2023-03-21T20:59:45.840Z,4.70
2023-03-21T21:01:48.478Z,4.43
2023-03-21T21:03:51.805Z,5.45
2023-03-21T21:05:54.322Z,4.40
2023-03-21T21:07:56.875Z,4.68
2023-03-21T21:09:59.421Z,6.00
2023-03-21T21:12:09.687Z,4.68
2023-03-21T21:14:12.400Z,5.60
2023-03-21T21:16:15.566Z,4.75
2023-03-21T21:18:18.466Z,7.00
2023-03-21T21:20:21.094Z,5.00
2023-03-21T21:22:23.759Z,5.28
2023-03-21T21:24:26.349Z,4.47
2023-03-21T21:26:28.888Z,5.50
2023-03-21T21:28:32.036Z,5.47
2023-03-21T21:30:38.325Z,4.93
2023-03-21T21:32:42.187Z,5.40
2023-03-21T21:34:44.690Z,5.93
2023-03-21T21:36:47.564Z,5.63
2023-03-21T21:38:50.322Z,5.82
2023-03-21T21:40:53.723Z,6.45
2023-03-21T21:42:56.484Z,5.93
2023-03-21T21:44:58.998Z,5.82
2023-03-21T21:47:04.298Z,6.82
2023-03-21T21:49:06.840Z,7.55
2023-03-21T21:51:09.728Z,8.25
2023-03-21T21:53:12.276Z,7.40
2023-03-21T21:55:18.060Z,6.95
2023-03-21T21:57:20.579Z,7.40
2023-03-21T21:59:24.572Z,7.63
2023-03-21T22:01:29.884Z,8.18
2023-03-21T22:03:41.245Z,7.25
2023-03-21T22:05:44.616Z,7.15
2023-03-21T22:07:48.304Z,8.48
2023-03-21T22:09:51.146Z,7.18
2023-03-21T22:11:53.829Z,8.20
2023-03-21T22:13:56.390Z,9.07
2023-03-21T22:15:59.009Z,8.32
2023-03-21T22:18:01.701Z,7.65
2023-03-21T22:20:09.726Z,8.35
2023-03-21T22:22:12.237Z,8.07
2023-03-21T22:24:14.716Z,8.13
2023-03-21T22:26:17.268Z,8.18
2023-03-21T22:28:22.243Z,8.05
2023-03-21T22:30:24.876Z,8.77
2023-03-21T22:32:27.497Z,7.45
2023-03-21T22:34:30.097Z,7.78
2023-03-21T22:36:32.506Z,8.48
2023-03-21T22:38:35.061Z,9.40
2023-03-21T22:40:38.069Z,8.88
2023-03-21T22:42:41.919Z,8.13
2023-03-21T22:44:44.452Z,9.23
2023-03-21T22:46:46.948Z,8.55
2023-03-21T22:48:49.428Z,9.85
2023-03-21T22:50:52.117Z,8.07
2023-03-21T22:52:54.678Z,8.20
2023-03-21T22:54:57.184Z,8.05
2023-03-21T22:57:00.139Z,8.48
2023-03-21T22:59:03.084Z,8.00
2023-03-21T23:01:05.952Z,8.57
2023-03-21T23:03:08.627Z,8.20
2023-03-21T23:05:11.830Z,9.13
2023-03-21T23:07:14.653Z,8.68
2023-03-21T23:09:17.757Z,8.90
2023-03-21T23:11:20.381Z,8.68
2023-03-21T23:13:26.731Z,9.85
2023-03-21T23:15:29.353Z,8.52
2023-03-21T23:17:33.908Z,9.07
2023-03-21T23:19:36.461Z,9.10
2023-03-21T23:21:39.547Z,9.07
2023-03-21T23:23:49.951Z,8.77
2023-03-21T23:25:53.352Z,8.98
2023-03-21T23:27:56.099Z,8.25
2023-03-21T23:29:58.659Z,8.27
2023-03-21T23:32:01.096Z,8.02
2023-03-21T23:34:04.240Z,8.27
2023-03-21T23:36:07.348Z,8.45
2023-03-21T23:38:09.806Z,8.13
2023-03-21T23:40:12.866Z,6.95
2023-03-21T23:42:15.354Z,7.43
2023-03-21T23:44:17.909Z,7.72
2023-03-21T23:46:20.719Z,8.40
2023-03-21T23:48:23.380Z,7.90
2023-03-21T23:50:25.991Z,8.00
2023-03-21T23:52:28.523Z,7.28
2023-03-21T23:54:31.032Z,7.75
2023-03-21T23:56:33.598Z,8.35
2023-03-21T23:58:36.344Z,7.13
